sensor_id;sensor_type;location;lat;lon;timestamp;temperature;humidity
12166;DHT22;6146;48.128;11.476;2023-07-16T00:00:30;21.90;99.90
12166;DHT22;6146;48.128;11.476;2023-07-16T00:02:56;21.90;99.90
12166;DHT22;6146;48.128;11.476;2023-07-16T00:05:22;21.70;99.90
12166;DHT22;6146;48.128;11.476;2023-07-16T00:07:48;21.70;99.90
12166;DHT22;6146;48.128;11.476;2023-07-16T00:10:13;21.70;99.90
12166;DHT22;6146;48.128;11.476;2023-07-16T00:12:39;21.60;99.90
12166;DHT22;6146;48.128;11.476;2023-07-16T00:15:05;21.60;99.90
12166;DHT22;6146;48.128;11.476;2023-07-16T00:17:32;21.50;99.90
12166;DHT22;6146;48.128;11.476;2023-07-16T00:19:58;21.50;99.90
12166;DHT22;6146;48.128;11.476;2023-07-16T00:22:23;20.90;99.90
12166;DHT22;6146;48.128;11.476;2023-07-16T00:24:49;21.30;99.90
12166;DHT22;6146;48.128;11.476;2023-07-16T00:27:15;21.30;99.90
12166;DHT22;6146;48.128;11.476;2023-07-16T00:29:40;21.30;99.90
12166;DHT22;6146;48.128;11.476;2023-07-16T00:32:06;21.20;99.90
12166;DHT22;6146;48.128;11.476;2023-07-16T00:34:32;21.30;99.90
12166;DHT22;6146;48.128;11.476;2023-07-16T00:36:57;21.20;99.90
12166;DHT22;6146;48.128;11.476;2023-07-16T00:39:27;21.20;99.90
12166;DHT22;6146;48.128;11.476;2023-07-16T00:41:53;21.20;99.90
12166;DHT22;6146;48.128;11.476;2023-07-16T00:44:19;21.10;99.90
12166;DHT22;6146;48.128;11.476;2023-07-16T00:46:44;21.10;99.90
12166;DHT22;6146;48.128;11.476;2023-07-16T00:49:10;21.10;99.90
12166;DHT22;6146;48.128;11.476;2023-07-16T00:51:35;20.90;99.90
12166;DHT22;6146;48.128;11.476;2023-07-16T00:54:02;20.90;99.90
12166;DHT22;6146;48.128;11.476;2023-07-16T00:56:27;20.80;99.90
12166;DHT22;6146;48.128;11.476;2023-07-16T00:58:53;20.80;99.90
12166;DHT22;6146;48.128;11.476;2023-07-16T01:01:18;20.80;99.90
12166;DHT22;6146;48.128;11.476;2023-07-16T01:03:44;20.80;99.90
12166;DHT22;6146;48.128;11.476;2023-07-16T01:06:28;20.90;99.90
12166;DHT22;6146;48.128;11.476;2023-07-16T01:11:27;20.70;99.90
12166;DHT22;6146;48.128;11.476;2023-07-16T01:13:53;20.60;99.90
12166;DHT22;6146;48.128;11.476;2023-07-16T01:16:23;20.60;99.90
12166;DHT22;6146;48.128;11.476;2023-07-16T01:18:49;20.60;99.90
12166;DHT22;6146;48.128;11.476;2023-07-16T01:21:16;20.50;99.90
12166;DHT22;6146;48.128;11.476;2023-07-16T01:23:58;20.60;99.90
12166;DHT22;6146;48.128;11.476;2023-07-16T01:29:39;20.50;99.90
12166;DHT22;6146;48.128;11.476;2023-07-16T01:32:07;20.50;99.90
12166;DHT22;6146;48.128;11.476;2023-07-16T01:34:34;20.50;99.90
12166;DHT22;6146;48.128;11.476;2023-07-16T01:37:02;20.50;99.90
12166;DHT22;6146;48.128;11.476;2023-07-16T01:39:28;20.50;99.90
12166;DHT22;6146;48.128;11.476;2023-07-16T01:41:54;20.50;99.90
12166;DHT22;6146;48.128;11.476;2023-07-16T01:44:20;20.40;99.90
12166;DHT22;6146;48.128;11.476;2023-07-16T01:49:31;20.40;99.90
12166;DHT22;6146;48.128;11.476;2023-07-16T01:51:56;20.40;99.90
12166;DHT22;6146;48.128;11.476;2023-07-16T01:54:22;20.60;99.90
12166;DHT22;6146;48.128;11.476;2023-07-16T01:56:47;20.50;99.90
12166;DHT22;6146;48.128;11.476;2023-07-16T01:59:13;20.50;99.90
12166;DHT22;6146;48.128;11.476;2023-07-16T02:01:38;20.60;99.90
12166;DHT22;6146;48.128;11.476;2023-07-16T02:04:04;20.60;99.90
12166;DHT22;6146;48.128;11.476;2023-07-16T02:06:29;20.60;99.90
12166;DHT22;6146;48.128;11.476;2023-07-16T02:08:55;20.60;99.90
12166;DHT22;6146;48.128;11.476;2023-07-16T02:11:20;20.70;99.90
12166;DHT22;6146;48.128;11.476;2023-07-16T02:13:46;20.80;99.90
12166;DHT22;6146;48.128;11.476;2023-07-16T02:16:11;20.80;99.90
12166;DHT22;6146;48.128;11.476;2023-07-16T02:18:37;20.90;99.90
12166;DHT22;6146;48.128;11.476;2023-07-16T02:21:03;20.90;99.90
12166;DHT22;6146;48.128;11.476;2023-07-16T02:23:29;20.90;99.90
12166;DHT22;6146;48.128;11.476;2023-07-16T02:25:54;21.00;99.90
12166;DHT22;6146;48.128;11.476;2023-07-16T02:28:20;20.90;99.90
12166;DHT22;6146;48.128;11.476;2023-07-16T02:30:45;21.10;99.90
12166;DHT22;6146;48.128;11.476;2023-07-16T02:33:11;21.10;99.90
12166;DHT22;6146;48.128;11.476;2023-07-16T02:35:36;21.10;99.90
12166;DHT22;6146;48.128;11.476;2023-07-16T02:38:02;21.10;99.90
12166;DHT22;6146;48.128;11.476;2023-07-16T02:40:28;21.10;99.90
12166;DHT22;6146;48.128;11.476;2023-07-16T02:42:53;21.10;99.90
12166;DHT22;6146;48.128;11.476;2023-07-16T02:45:19;21.10;99.90
12166;DHT22;6146;48.128;11.476;2023-07-16T02:47:44;21.10;99.90
12166;DHT22;6146;48.128;11.476;2023-07-16T02:50:10;21.20;99.90
12166;DHT22;6146;48.128;11.476;2023-07-16T02:52:36;21.20;99.90
12166;DHT22;6146;48.128;11.476;2023-07-16T02:55:01;21.30;99.90
12166;DHT22;6146;48.128;11.476;2023-07-16T02:57:28;21.30;99.90
12166;DHT22;6146;48.128;11.476;2023-07-16T02:59:53;21.30;99.90
12166;DHT22;6146;48.128;11.476;2023-07-16T03:02:19;21.30;99.90
12166;DHT22;6146;48.128;11.476;2023-07-16T03:04:44;21.40;99.90
12166;DHT22;6146;48.128;11.476;2023-07-16T03:07:10;21.40;99.90
12166;DHT22;6146;48.128;11.476;2023-07-16T03:09:36;21.40;99.90
12166;DHT22;6146;48.128;11.476;2023-07-16T03:12:01;21.40;99.90
12166;DHT22;6146;48.128;11.476;2023-07-16T03:14:27;21.40;99.90
12166;DHT22;6146;48.128;11.476;2023-07-16T03:16:52;21.50;99.90
12166;DHT22;6146;48.128;11.476;2023-07-16T03:19:18;21.50;99.90
12166;DHT22;6146;48.128;11.476;2023-07-16T03:21:43;21.50;99.90
12166;DHT22;6146;48.128;11.476;2023-07-16T03:24:11;21.60;99.90
12166;DHT22;6146;48.128;11.476;2023-07-16T03:26:37;21.60;99.90
12166;DHT22;6146;48.128;11.476;2023-07-16T03:29:03;21.50;99.90
12166;DHT22;6146;48.128;11.476;2023-07-16T03:31:28;21.50;99.90
12166;DHT22;6146;48.128;11.476;2023-07-16T03:33:54;21.40;99.90
12166;DHT22;6146;48.128;11.476;2023-07-16T03:36:19;21.40;99.90
12166;DHT22;6146;48.128;11.476;2023-07-16T03:38:45;21.40;99.90
12166;DHT22;6146;48.128;11.476;2023-07-16T03:41:10;21.40;99.90
12166;DHT22;6146;48.128;11.476;2023-07-16T03:43:36;21.40;99.90
12166;DHT22;6146;48.128;11.476;2023-07-16T03:46:02;21.30;99.90
12166;DHT22;6146;48.128;11.476;2023-07-16T03:48:27;21.40;99.90
12166;DHT22;6146;48.128;11.476;2023-07-16T03:50:53;21.40;99.90
12166;DHT22;6146;48.128;11.476;2023-07-16T03:53:18;21.40;99.90
12166;DHT22;6146;48.128;11.476;2023-07-16T03:55:44;21.40;99.90
12166;DHT22;6146;48.128;11.476;2023-07-16T03:58:09;21.40;99.90
12166;DHT22;6146;48.128;11.476;2023-07-16T04:00:35;21.40;99.90
12166;DHT22;6146;48.128;11.476;2023-07-16T04:03:00;21.30;99.90
12166;DHT22;6146;48.128;11.476;2023-07-16T04:05:26;21.30;99.90
12166;DHT22;6146;48.128;11.476;2023-07-16T04:07:52;21.30;99.90
12166;DHT22;6146;48.128;11.476;2023-07-16T04:10:17;21.30;99.90
12166;DHT22;6146;48.128;11.476;2023-07-16T04:12:43;21.20;99.90
12166;DHT22;6146;48.128;11.476;2023-07-16T04:15:09;21.20;99.90
12166;DHT22;6146;48.128;11.476;2023-07-16T04:17:36;21.00;99.90
12166;DHT22;6146;48.128;11.476;2023-07-16T04:20:01;20.80;99.90
12166;DHT22;6146;48.128;11.476;2023-07-16T04:22:28;20.80;99.90
12166;DHT22;6146;48.128;11.476;2023-07-16T04:24:53;20.80;99.90
12166;DHT22;6146;48.128;11.476;2023-07-16T04:27:19;20.80;99.90
12166;DHT22;6146;48.128;11.476;2023-07-16T04:29:44;20.70;99.90
12166;DHT22;6146;48.128;11.476;2023-07-16T04:32:10;20.50;99.90
12166;DHT22;6146;48.128;11.476;2023-07-16T04:34:36;20.40;99.90
12166;DHT22;6146;48.128;11.476;2023-07-16T04:37:01;20.50;99.90
12166;DHT22;6146;48.128;11.476;2023-07-16T04:39:27;20.50;99.90
12166;DHT22;6146;48.128;11.476;2023-07-16T04:41:52;20.50;99.90
12166;DHT22;6146;48.128;11.476;2023-07-16T04:44:18;20.50;99.90
12166;DHT22;6146;48.128;11.476;2023-07-16T04:46:43;20.50;99.90
12166;DHT22;6146;48.128;11.476;2023-07-16T04:49:09;20.50;99.90
12166;DHT22;6146;48.128;11.476;2023-07-16T04:51:34;20.50;99.90
12166;DHT22;6146;48.128;11.476;2023-07-16T04:54:00;20.50;99.90
12166;DHT22;6146;48.128;11.476;2023-07-16T04:56:25;20.50;99.90
12166;DHT22;6146;48.128;11.476;2023-07-16T04:58:51;20.30;99.90
12166;DHT22;6146;48.128;11.476;2023-07-16T05:01:16;20.30;99.90
12166;DHT22;6146;48.128;11.476;2023-07-16T05:03:42;20.20;99.90
12166;DHT22;6146;48.128;11.476;2023-07-16T05:06:08;20.10;99.90
12166;DHT22;6146;48.128;11.476;2023-07-16T05:08:33;20.10;99.90
12166;DHT22;6146;48.128;11.476;2023-07-16T05:10:59;20.10;99.90
12166;DHT22;6146;48.128;11.476;2023-07-16T05:13:24;20.30;99.90
12166;DHT22;6146;48.128;11.476;2023-07-16T05:15:50;20.20;99.90
12166;DHT22;6146;48.128;11.476;2023-07-16T05:18:16;20.30;99.90
12166;DHT22;6146;48.128;11.476;2023-07-16T05:20:41;20.30;99.90
12166;DHT22;6146;48.128;11.476;2023-07-16T05:23:07;20.40;99.90
12166;DHT22;6146;48.128;11.476;2023-07-16T05:25:32;20.50;99.90
12166;DHT22;6146;48.128;11.476;2023-07-16T05:27:58;20.60;99.90
12166;DHT22;6146;48.128;11.476;2023-07-16T05:30:23;20.70;99.90
12166;DHT22;6146;48.128;11.476;2023-07-16T05:32:49;20.70;99.90
12166;DHT22;6146;48.128;11.476;2023-07-16T05:35:14;20.70;99.90
12166;DHT22;6146;48.128;11.476;2023-07-16T05:37:40;20.70;99.90
12166;DHT22;6146;48.128;11.476;2023-07-16T05:40:06;20.60;99.90
12166;DHT22;6146;48.128;11.476;2023-07-16T05:42:34;20.60;99.90
12166;DHT22;6146;48.128;11.476;2023-07-16T05:44:59;20.90;99.90
12166;DHT22;6146;48.128;11.476;2023-07-16T05:47:25;20.80;99.90
12166;DHT22;6146;48.128;11.476;2023-07-16T05:49:50;21.00;99.90
12166;DHT22;6146;48.128;11.476;2023-07-16T05:52:16;21.40;99.90
12166;DHT22;6146;48.128;11.476;2023-07-16T05:54:43;21.80;99.90
12166;DHT22;6146;48.128;11.476;2023-07-16T05:57:10;22.10;99.90
12166;DHT22;6146;48.128;11.476;2023-07-16T05:59:35;22.30;99.90
12166;DHT22;6146;48.128;11.476;2023-07-16T06:02:05;22.40;99.90
12166;DHT22;6146;48.128;11.476;2023-07-16T06:04:31;22.50;99.90
12166;DHT22;6146;48.128;11.476;2023-07-16T06:06:57;22.70;99.90
12166;DHT22;6146;48.128;11.476;2023-07-16T06:09:23;22.90;99.90
12166;DHT22;6146;48.128;11.476;2023-07-16T06:11:48;23.00;99.90
12166;DHT22;6146;48.128;11.476;2023-07-16T06:14:14;22.90;99.90
12166;DHT22;6146;48.128;11.476;2023-07-16T06:16:40;23.00;99.90
12166;DHT22;6146;48.128;11.476;2023-07-16T06:19:05;22.70;99.90
12166;DHT22;6146;48.128;11.476;2023-07-16T06:21:31;22.50;99.90
12166;DHT22;6146;48.128;11.476;2023-07-16T06:23:56;22.30;99.90
12166;DHT22;6146;48.128;11.476;2023-07-16T06:26:22;22.40;99.90
12166;DHT22;6146;48.128;11.476;2023-07-16T06:28:47;22.40;99.90
12166;DHT22;6146;48.128;11.476;2023-07-16T06:31:17;22.30;99.90
12166;DHT22;6146;48.128;11.476;2023-07-16T06:33:42;22.20;99.90
12166;DHT22;6146;48.128;11.476;2023-07-16T06:36:08;22.10;99.90
12166;DHT22;6146;48.128;11.476;2023-07-16T06:38:34;22.10;99.90
12166;DHT22;6146;48.128;11.476;2023-07-16T06:40:59;22.10;99.90
12166;DHT22;6146;48.128;11.476;2023-07-16T06:43:25;22.40;99.90
12166;DHT22;6146;48.128;11.476;2023-07-16T06:45:50;23.00;99.90
12166;DHT22;6146;48.128;11.476;2023-07-16T06:48:16;23.90;99.90
12166;DHT22;6146;48.128;11.476;2023-07-16T06:50:42;24.60;99.90
12166;DHT22;6146;48.128;11.476;2023-07-16T06:53:08;25.20;99.90
12166;DHT22;6146;48.128;11.476;2023-07-16T06:55:34;25.60;99.90
12166;DHT22;6146;48.128;11.476;2023-07-16T06:58:00;26.00;99.90
12166;DHT22;6146;48.128;11.476;2023-07-16T07:00:26;25.70;99.90
12166;DHT22;6146;48.128;11.476;2023-07-16T07:02:51;25.40;99.90
12166;DHT22;6146;48.128;11.476;2023-07-16T07:05:17;25.10;99.90
12166;DHT22;6146;48.128;11.476;2023-07-16T07:07:43;25.10;99.90
12166;DHT22;6146;48.128;11.476;2023-07-16T07:10:13;25.20;99.90
12166;DHT22;6146;48.128;11.476;2023-07-16T07:12:39;25.30;99.90
12166;DHT22;6146;48.128;11.476;2023-07-16T07:15:08;25.30;99.90
12166;DHT22;6146;48.128;11.476;2023-07-16T07:17:34;25.20;99.90
12166;DHT22;6146;48.128;11.476;2023-07-16T07:20:00;25.40;99.90
12166;DHT22;6146;48.128;11.476;2023-07-16T07:22:26;25.20;99.90
12166;DHT22;6146;48.128;11.476;2023-07-16T07:24:52;25.00;99.90
12166;DHT22;6146;48.128;11.476;2023-07-16T07:27:17;24.70;99.90
12166;DHT22;6146;48.128;11.476;2023-07-16T07:29:43;24.50;99.90
12166;DHT22;6146;48.128;11.476;2023-07-16T07:32:09;24.20;99.90
12166;DHT22;6146;48.128;11.476;2023-07-16T07:34:35;24.00;99.90
12166;DHT22;6146;48.128;11.476;2023-07-16T07:37:00;23.70;99.90
12166;DHT22;6146;48.128;11.476;2023-07-16T07:39:26;23.60;99.90
12166;DHT22;6146;48.128;11.476;2023-07-16T07:41:51;23.50;99.90
12166;DHT22;6146;48.128;11.476;2023-07-16T07:44:17;23.50;99.90
12166;DHT22;6146;48.128;11.476;2023-07-16T07:46:42;23.70;99.90
12166;DHT22;6146;48.128;11.476;2023-07-16T07:49:08;24.00;99.90
12166;DHT22;6146;48.128;11.476;2023-07-16T07:51:33;24.20;99.90
12166;DHT22;6146;48.128;11.476;2023-07-16T07:53:59;24.30;99.90
12166;DHT22;6146;48.128;11.476;2023-07-16T07:56:25;24.30;99.90
12166;DHT22;6146;48.128;11.476;2023-07-16T07:58:51;24.30;99.90
12166;DHT22;6146;48.128;11.476;2023-07-16T08:01:16;24.40;99.90
12166;DHT22;6146;48.128;11.476;2023-07-16T08:03:42;24.30;99.90
12166;DHT22;6146;48.128;11.476;2023-07-16T08:06:07;24.40;99.90
12166;DHT22;6146;48.128;11.476;2023-07-16T08:08:33;24.80;99.90
12166;DHT22;6146;48.128;11.476;2023-07-16T08:10:58;25.10;99.90
12166;DHT22;6146;48.128;11.476;2023-07-16T08:13:24;25.40;99.90
12166;DHT22;6146;48.128;11.476;2023-07-16T08:15:50;25.50;99.90
12166;DHT22;6146;48.128;11.476;2023-07-16T08:18:15;26.10;99.90
12166;DHT22;6146;48.128;11.476;2023-07-16T08:20:41;27.00;99.90
12166;DHT22;6146;48.128;11.476;2023-07-16T08:23:06;28.20;99.90
12166;DHT22;6146;48.128;11.476;2023-07-16T08:25:32;28.60;99.90
12166;DHT22;6146;48.128;11.476;2023-07-16T08:27:58;28.70;99.90
12166;DHT22;6146;48.128;11.476;2023-07-16T08:30:23;28.70;99.90
12166;DHT22;6146;48.128;11.476;2023-07-16T08:32:49;28.80;99.90
12166;DHT22;6146;48.128;11.476;2023-07-16T08:35:16;28.80;99.90
12166;DHT22;6146;48.128;11.476;2023-07-16T08:37:43;28.90;99.90
12166;DHT22;6146;48.128;11.476;2023-07-16T08:40:09;29.10;99.90
12166;DHT22;6146;48.128;11.476;2023-07-16T08:42:37;29.10;99.90
12166;DHT22;6146;48.128;11.476;2023-07-16T08:45:14;29.20;99.90
12166;DHT22;6146;48.128;11.476;2023-07-16T08:47:40;29.30;99.90
12166;DHT22;6146;48.128;11.476;2023-07-16T08:50:06;29.00;99.90
12166;DHT22;6146;48.128;11.476;2023-07-16T08:52:31;29.20;99.90
12166;DHT22;6146;48.128;11.476;2023-07-16T08:54:57;29.30;99.90
12166;DHT22;6146;48.128;11.476;2023-07-16T08:57:23;29.00;99.90
12166;DHT22;6146;48.128;11.476;2023-07-16T08:59:50;29.00;99.90
12166;DHT22;6146;48.128;11.476;2023-07-16T09:02:19;29.20;99.90
12166;DHT22;6146;48.128;11.476;2023-07-16T09:04:47;28.90;99.90
12166;DHT22;6146;48.128;11.476;2023-07-16T09:07:13;28.50;99.90
12166;DHT22;6146;48.128;11.476;2023-07-16T09:09:39;27.70;99.90
12166;DHT22;6146;48.128;11.476;2023-07-16T09:12:05;27.00;99.90
12166;DHT22;6146;48.128;11.476;2023-07-16T09:14:30;27.90;99.90
12166;DHT22;6146;48.128;11.476;2023-07-16T09:16:56;29.60;99.30
12166;DHT22;6146;48.128;11.476;2023-07-16T09:19:22;30.60;97.30
12166;DHT22;6146;48.128;11.476;2023-07-16T09:21:51;30.50;96.90
12166;DHT22;6146;48.128;11.476;2023-07-16T09:24:18;29.40;97.90
12166;DHT22;6146;48.128;11.476;2023-07-16T09:26:48;28.70;99.50
12166;DHT22;6146;48.128;11.476;2023-07-16T09:29:15;29.20;99.90
12166;DHT22;6146;48.128;11.476;2023-07-16T09:34:22;29.30;96.80
12166;DHT22;6146;48.128;11.476;2023-07-16T09:36:48;29.20;97.10
12166;DHT22;6146;48.128;11.476;2023-07-16T09:39:17;29.70;99.50
12166;DHT22;6146;48.128;11.476;2023-07-16T09:41:47;31.00;95.90
12166;DHT22;6146;48.128;11.476;2023-07-16T09:44:14;32.10;91.90
12166;DHT22;6146;48.128;11.476;2023-07-16T09:46:40;32.00;90.80
12166;DHT22;6146;48.128;11.476;2023-07-16T09:49:06;32.00;90.80
12166;DHT22;6146;48.128;11.476;2023-07-16T09:51:37;31.70;92.00
12166;DHT22;6146;48.128;11.476;2023-07-16T09:54:03;32.20;90.40
12166;DHT22;6146;48.128;11.476;2023-07-16T09:56:36;33.40;85.50
12166;DHT22;6146;48.128;11.476;2023-07-16T09:59:08;34.90;81.90
12166;DHT22;6146;48.128;11.476;2023-07-16T10:01:36;35.60;78.30
12166;DHT22;6146;48.128;11.476;2023-07-16T10:04:37;35.90;75.80
12166;DHT22;6146;48.128;11.476;2023-07-16T10:07:04;36.20;73.90
12166;DHT22;6146;48.128;11.476;2023-07-16T10:09:41;37.10;69.10
12166;DHT22;6146;48.128;11.476;2023-07-16T10:12:18;39.30;60.30
12166;DHT22;6146;48.128;11.476;2023-07-16T10:14:55;40.10;56.80
12166;DHT22;6146;48.128;11.476;2023-07-16T10:17:26;40.50;50.20
12166;DHT22;6146;48.128;11.476;2023-07-16T10:19:56;39.60;53.10
12166;DHT22;6146;48.128;11.476;2023-07-16T10:22:39;38.90;51.70
12166;DHT22;6146;48.128;11.476;2023-07-16T10:25:10;38.00;52.40
12166;DHT22;6146;48.128;11.476;2023-07-16T10:27:36;36.60;54.30
12166;DHT22;6146;48.128;11.476;2023-07-16T10:30:04;35.30;56.30
12166;DHT22;6146;48.128;11.476;2023-07-16T10:32:31;34.10;58.70
12166;DHT22;6146;48.128;11.476;2023-07-16T10:34:57;33.30;60.60
12166;DHT22;6146;48.128;11.476;2023-07-16T10:37:23;32.80;63.60
12166;DHT22;6146;48.128;11.476;2023-07-16T10:39:51;32.70;63.20
12166;DHT22;6146;48.128;11.476;2023-07-16T10:42:17;33.20;63.30
12166;DHT22;6146;48.128;11.476;2023-07-16T10:44:44;33.60;61.80
12166;DHT22;6146;48.128;11.476;2023-07-16T10:47:23;33.20;63.00
12166;DHT22;6146;48.128;11.476;2023-07-16T10:49:50;32.60;66.00
12166;DHT22;6146;48.128;11.476;2023-07-16T10:52:17;32.10;71.20
12166;DHT22;6146;48.128;11.476;2023-07-16T10:54:43;31.80;67.40
12166;DHT22;6146;48.128;11.476;2023-07-16T10:57:10;31.70;71.50
12166;DHT22;6146;48.128;11.476;2023-07-16T10:59:38;31.80;75.00
12166;DHT22;6146;48.128;11.476;2023-07-16T11:02:08;31.70;72.10
12166;DHT22;6146;48.128;11.476;2023-07-16T11:04:35;32.10;70.20
12166;DHT22;6146;48.128;11.476;2023-07-16T11:07:07;32.10;72.10
12166;DHT22;6146;48.128;11.476;2023-07-16T11:09:34;31.80;68.10
12166;DHT22;6146;48.128;11.476;2023-07-16T11:12:10;31.40;72.70
12166;DHT22;6146;48.128;11.476;2023-07-16T11:14:36;31.40;78.60
12166;DHT22;6146;48.128;11.476;2023-07-16T11:17:09;31.90;70.70
12166;DHT22;6146;48.128;11.476;2023-07-16T11:19:37;31.60;69.90
12166;DHT22;6146;48.128;11.476;2023-07-16T11:22:04;31.80;71.40
12166;DHT22;6146;48.128;11.476;2023-07-16T11:24:46;33.10;65.80
12166;DHT22;6146;48.128;11.476;2023-07-16T11:27:14;34.20;61.90
12166;DHT22;6146;48.128;11.476;2023-07-16T11:29:44;35.00;62.20
12166;DHT22;6146;48.128;11.476;2023-07-16T11:32:10;35.90;62.90
12166;DHT22;6146;48.128;11.476;2023-07-16T11:34:36;36.30;60.10
12166;DHT22;6146;48.128;11.476;2023-07-16T11:37:09;36.80;58.90
12166;DHT22;6146;48.128;11.476;2023-07-16T11:39:35;37.70;58.00
12166;DHT22;6146;48.128;11.476;2023-07-16T11:42:02;38.10;56.10
12166;DHT22;6146;48.128;11.476;2023-07-16T11:44:35;38.60;54.10
12166;DHT22;6146;48.128;11.476;2023-07-16T11:47:04;38.20;53.40
12166;DHT22;6146;48.128;11.476;2023-07-16T11:49:30;36.90;55.80
12166;DHT22;6146;48.128;11.476;2023-07-16T11:51:57;36.20;56.60
12166;DHT22;6146;48.128;11.476;2023-07-16T11:54:23;36.00;57.20
12166;DHT22;6146;48.128;11.476;2023-07-16T11:56:49;35.60;59.90
12166;DHT22;6146;48.128;11.476;2023-07-16T11:59:16;35.00;58.40
12166;DHT22;6146;48.128;11.476;2023-07-16T12:01:46;35.00;59.60
12166;DHT22;6146;48.128;11.476;2023-07-16T12:04:11;35.20;59.50
12166;DHT22;6146;48.128;11.476;2023-07-16T12:06:37;34.80;59.10
12166;DHT22;6146;48.128;11.476;2023-07-16T12:09:02;34.60;60.90
12166;DHT22;6146;48.128;11.476;2023-07-16T12:11:28;34.00;60.70
12166;DHT22;6146;48.128;11.476;2023-07-16T12:13:54;33.40;62.90
12166;DHT22;6146;48.128;11.476;2023-07-16T12:16:19;32.50;65.00
12166;DHT22;6146;48.128;11.476;2023-07-16T12:18:45;32.30;68.60
12166;DHT22;6146;48.128;11.476;2023-07-16T12:21:10;32.30;68.40
12166;DHT22;6146;48.128;11.476;2023-07-16T12:23:36;32.50;67.50
12166;DHT22;6146;48.128;11.476;2023-07-16T12:26:01;32.70;67.00
12166;DHT22;6146;48.128;11.476;2023-07-16T12:28:27;32.70;66.20
12166;DHT22;6146;48.128;11.476;2023-07-16T12:30:52;32.50;67.30
12166;DHT22;6146;48.128;11.476;2023-07-16T12:33:18;32.40;67.00
12166;DHT22;6146;48.128;11.476;2023-07-16T12:35:44;32.30;67.90
12166;DHT22;6146;48.128;11.476;2023-07-16T12:38:09;32.20;68.60
12166;DHT22;6146;48.128;11.476;2023-07-16T12:40:35;32.00;70.60
12166;DHT22;6146;48.128;11.476;2023-07-16T12:43:05;31.90;71.70
12166;DHT22;6146;48.128;11.476;2023-07-16T12:45:31;32.00;70.80
12166;DHT22;6146;48.128;11.476;2023-07-16T12:47:56;31.80;71.80
12166;DHT22;6146;48.128;11.476;2023-07-16T12:50:22;31.70;73.60
12166;DHT22;6146;48.128;11.476;2023-07-16T12:52:48;31.10;76.10
12166;DHT22;6146;48.128;11.476;2023-07-16T12:55:14;30.90;75.80
12166;DHT22;6146;48.128;11.476;2023-07-16T12:57:39;30.90;76.10
12166;DHT22;6146;48.128;11.476;2023-07-16T13:00:05;30.70;77.20
12166;DHT22;6146;48.128;11.476;2023-07-16T13:02:32;30.60;77.80
12166;DHT22;6146;48.128;11.476;2023-07-16T13:04:57;30.70;79.00
12166;DHT22;6146;48.128;11.476;2023-07-16T13:07:23;30.70;78.70
12166;DHT22;6146;48.128;11.476;2023-07-16T13:09:49;30.70;78.50
12166;DHT22;6146;48.128;11.476;2023-07-16T13:12:14;30.80;77.30
12166;DHT22;6146;48.128;11.476;2023-07-16T13:14:40;30.70;79.20
12166;DHT22;6146;48.128;11.476;2023-07-16T13:17:05;30.60;79.50
12166;DHT22;6146;48.128;11.476;2023-07-16T13:19:31;30.60;79.50
12166;DHT22;6146;48.128;11.476;2023-07-16T13:21:56;30.70;79.50
12166;DHT22;6146;48.128;11.476;2023-07-16T13:24:22;31.00;78.70
12166;DHT22;6146;48.128;11.476;2023-07-16T13:26:47;31.10;78.30
12166;DHT22;6146;48.128;11.476;2023-07-16T13:29:13;31.50;78.00
12166;DHT22;6146;48.128;11.476;2023-07-16T13:31:38;31.80;75.90
12166;DHT22;6146;48.128;11.476;2023-07-16T13:34:04;32.20;75.40
12166;DHT22;6146;48.128;11.476;2023-07-16T13:36:30;32.40;74.20
12166;DHT22;6146;48.128;11.476;2023-07-16T13:38:55;32.30;74.30
12166;DHT22;6146;48.128;11.476;2023-07-16T13:41:21;31.80;75.40
12166;DHT22;6146;48.128;11.476;2023-07-16T13:43:46;31.20;76.80
12166;DHT22;6146;48.128;11.476;2023-07-16T13:46:12;31.30;76.90
12166;DHT22;6146;48.128;11.476;2023-07-16T13:48:37;31.50;75.70
12166;DHT22;6146;48.128;11.476;2023-07-16T13:51:04;31.80;75.60
12166;DHT22;6146;48.128;11.476;2023-07-16T13:53:30;31.80;74.80
12166;DHT22;6146;48.128;11.476;2023-07-16T13:55:55;31.60;75.70
12166;DHT22;6146;48.128;11.476;2023-07-16T13:58:21;31.50;76.10
12166;DHT22;6146;48.128;11.476;2023-07-16T14:00:46;31.40;76.60
12166;DHT22;6146;48.128;11.476;2023-07-16T14:03:12;31.40;76.40
12166;DHT22;6146;48.128;11.476;2023-07-16T14:05:37;31.40;77.20
12166;DHT22;6146;48.128;11.476;2023-07-16T14:08:07;31.30;76.70
12166;DHT22;6146;48.128;11.476;2023-07-16T14:10:33;31.20;77.20
12166;DHT22;6146;48.128;11.476;2023-07-16T14:12:59;31.00;77.60
12166;DHT22;6146;48.128;11.476;2023-07-16T14:15:25;31.00;77.30
12166;DHT22;6146;48.128;11.476;2023-07-16T14:17:50;30.90;77.80
12166;DHT22;6146;48.128;11.476;2023-07-16T14:20:16;31.00;77.40
12166;DHT22;6146;48.128;11.476;2023-07-16T14:22:41;31.00;79.20
12166;DHT22;6146;48.128;11.476;2023-07-16T14:25:07;30.80;79.50
12166;DHT22;6146;48.128;11.476;2023-07-16T14:27:34;30.50;78.90
12166;DHT22;6146;48.128;11.476;2023-07-16T14:30:00;30.50;80.70
12166;DHT22;6146;48.128;11.476;2023-07-16T14:32:26;30.30;80.90
12166;DHT22;6146;48.128;11.476;2023-07-16T14:34:52;30.10;82.00
12166;DHT22;6146;48.128;11.476;2023-07-16T14:37:17;30.00;82.40
12166;DHT22;6146;48.128;11.476;2023-07-16T14:39:43;29.90;82.10
12166;DHT22;6146;48.128;11.476;2023-07-16T14:42:08;29.80;83.10
12166;DHT22;6146;48.128;11.476;2023-07-16T14:44:34;29.50;82.30
12166;DHT22;6146;48.128;11.476;2023-07-16T14:47:00;29.30;83.90
12166;DHT22;6146;48.128;11.476;2023-07-16T14:49:25;29.30;84.70
12166;DHT22;6146;48.128;11.476;2023-07-16T14:51:51;29.30;83.60
12166;DHT22;6146;48.128;11.476;2023-07-16T14:54:17;29.40;83.40
12166;DHT22;6146;48.128;11.476;2023-07-16T14:56:43;29.50;83.50
12166;DHT22;6146;48.128;11.476;2023-07-16T14:59:08;29.60;82.50
12166;DHT22;6146;48.128;11.476;2023-07-16T15:01:34;29.60;83.00
12166;DHT22;6146;48.128;11.476;2023-07-16T15:04:00;29.50;84.10
12166;DHT22;6146;48.128;11.476;2023-07-16T15:06:25;29.60;82.50
12166;DHT22;6146;48.128;11.476;2023-07-16T15:08:51;29.80;81.50
12166;DHT22;6146;48.128;11.476;2023-07-16T15:11:17;29.80;81.00
12166;DHT22;6146;48.128;11.476;2023-07-16T15:13:42;29.70;81.00
12166;DHT22;6146;48.128;11.476;2023-07-16T15:16:08;29.50;81.80
12166;DHT22;6146;48.128;11.476;2023-07-16T15:18:33;29.50;81.20
12166;DHT22;6146;48.128;11.476;2023-07-16T15:21:00;29.40;81.70
12166;DHT22;6146;48.128;11.476;2023-07-16T15:23:27;29.30;81.80
12166;DHT22;6146;48.128;11.476;2023-07-16T15:25:53;29.30;81.70
12166;DHT22;6146;48.128;11.476;2023-07-16T15:28:19;29.20;82.60
12166;DHT22;6146;48.128;11.476;2023-07-16T15:30:45;29.10;82.20
12166;DHT22;6146;48.128;11.476;2023-07-16T15:33:11;29.00;84.10
12166;DHT22;6146;48.128;11.476;2023-07-16T15:35:37;28.80;83.30